createdAt,value
2023-04-03T00:00:41.665Z,100.00
2023-04-03T00:03:08.849Z,100.00
2023-04-03T00:05:36.325Z,100.00
2023-04-03T00:08:03.530Z,100.00
2023-04-03T00:10:30.569Z,100.00
2023-04-03T00:12:57.586Z,100.00
2023-04-03T00:15:24.636Z,100.00
2023-04-03T00:17:51.689Z,100.00
2023-04-03T00:20:18.950Z,100.00
2023-04-03T00:22:46.746Z,100.00
2023-04-03T00:25:13.868Z,100.00
2023-04-03T00:27:41.511Z,100.00
2023-04-03T00:30:11.764Z,100.00
2023-04-03T00:32:39.271Z,100.00
2023-04-03T00:35:06.906Z,100.00
2023-04-03T00:37:33.919Z,100.00
2023-04-03T00:40:01.246Z,100.00
2023-04-03T00:42:28.587Z,100.00
2023-04-03T00:44:58.709Z,100.00
2023-04-03T00:47:26.255Z,100.00
2023-04-03T00:49:54.624Z,100.00
2023-04-03T00:52:26.537Z,100.00
2023-04-03T00:54:57.828Z,100.00
2023-04-03T00:57:25.381Z,100.00
2023-04-03T00:59:58.292Z,100.00
2023-04-03T01:02:25.504Z,100.00
2023-04-03T01:04:53.147Z,100.00
2023-04-03T01:07:28.933Z,100.00
2023-04-03T01:10:02.795Z,100.00
2023-04-03T01:12:33.482Z,100.00
2023-04-03T01:15:04.403Z,100.00
2023-04-03T01:17:40.156Z,100.00
2023-04-03T01:20:13.198Z,97.90
2023-04-03T01:23:09.385Z,93.63
2023-04-03T01:25:40.142Z,91.92
2023-04-03T01:28:09.563Z,91.59
2023-04-03T01:30:44.030Z,91.25
2023-04-03T01:33:11.581Z,92.92
2023-04-03T01:35:39.088Z,90.94
2023-04-03T01:38:06.881Z,89.71
2023-04-03T01:40:34.118Z,91.50
2023-04-03T01:43:01.485Z,94.10
2023-04-03T01:45:28.619Z,92.28
2023-04-03T01:47:55.696Z,89.88
2023-04-03T01:50:24.348Z,91.50
2023-04-03T01:52:51.418Z,92.42
2023-04-03T01:55:18.823Z,90.87
2023-04-03T01:57:45.860Z,91.75
2023-04-03T02:00:13.612Z,91.28
2023-04-03T02:02:41.826Z,91.12
2023-04-03T02:05:09.432Z,93.04
2023-04-03T02:07:36.586Z,93.79
2023-04-03T02:10:03.842Z,94.32
2023-04-03T02:12:30.918Z,93.65
2023-04-03T02:14:59.051Z,95.62
2023-04-03T02:17:27.839Z,93.77
2023-04-03T02:19:55.882Z,94.87
2023-04-03T02:22:24.382Z,96.21
2023-04-03T02:24:52.744Z,99.25
2023-04-03T02:27:21.330Z,97.72
2023-04-03T02:29:49.263Z,99.16
2023-04-03T02:32:16.486Z,99.60
2023-04-03T02:34:44.446Z,100.00
2023-04-03T02:37:13.695Z,100.00
2023-04-03T02:39:41.084Z,100.00
2023-04-03T02:42:08.432Z,100.00
2023-04-03T02:44:36.540Z,100.00
2023-04-03T02:47:03.831Z,100.00
2023-04-03T02:49:30.978Z,100.00
2023-04-03T02:51:58.168Z,100.00
2023-04-03T02:54:28.682Z,100.00
2023-04-03T02:56:59.292Z,100.00
2023-04-03T02:59:26.288Z,100.00
2023-04-03T03:01:53.789Z,99.42
2023-04-03T03:04:21.172Z,98.66
2023-04-03T03:06:48.235Z,99.13
2023-04-03T03:09:15.645Z,99.06
2023-04-03T03:11:43.444Z,99.81
2023-04-03T03:14:10.647Z,98.92
2023-04-03T03:16:37.684Z,100.00
2023-04-03T03:19:04.798Z,100.00
2023-04-03T03:21:32.205Z,100.00
2023-04-03T03:23:59.249Z,100.00
2023-04-03T03:26:27.363Z,100.00
2023-04-03T03:28:55.872Z,99.89
2023-04-03T03:31:23.065Z,100.00
2023-04-03T03:33:50.106Z,99.63
2023-04-03T03:36:17.195Z,99.00
2023-04-03T03:38:44.255Z,99.18
2023-04-03T03:41:11.740Z,99.36
2023-04-03T03:43:39.269Z,98.68
2023-04-03T03:46:08.088Z,100.00
2023-04-03T03:48:35.223Z,100.00
2023-04-03T03:51:02.452Z,100.00
2023-04-03T03:53:33.565Z,100.00
2023-04-03T03:56:06.527Z,100.00
2023-04-03T03:58:35.078Z,100.00
2023-04-03T04:01:07.816Z,100.00
2023-04-03T04:03:40.658Z,100.00
2023-04-03T04:06:09.961Z,100.00
2023-04-03T04:08:37.122Z,100.00
2023-04-03T04:11:06.381Z,100.00
2023-04-03T04:13:33.780Z,100.00
2023-04-03T04:16:01.940Z,100.00
2023-04-03T04:18:29.867Z,100.00
2023-04-03T04:20:56.893Z,100.00
2023-04-03T04:23:24.417Z,100.00
2023-04-03T04:25:52.745Z,100.00
2023-04-03T04:28:20.756Z,100.00
2023-04-03T04:30:50.644Z,100.00
2023-04-03T04:33:19.252Z,100.00
2023-04-03T04:35:48.653Z,100.00
2023-04-03T04:38:17.391Z,100.00
2023-04-03T04:40:44.639Z,100.00
2023-04-03T04:43:15.223Z,100.00
2023-04-03T04:45:44.184Z,100.00
2023-04-03T04:48:11.337Z,100.00
2023-04-03T04:50:38.806Z,100.00
2023-04-03T04:53:06.425Z,100.00
2023-04-03T04:55:33.533Z,100.00
2023-04-03T04:58:00.567Z,100.00
2023-04-03T05:00:28.062Z,99.55
2023-04-03T05:02:55.483Z,99.48
2023-04-03T05:05:24.229Z,97.98
2023-04-03T05:07:51.272Z,97.72
2023-04-03T05:10:18.613Z,97.45
2023-04-03T05:12:46.836Z,97.98
2023-04-03T05:15:13.983Z,97.66
2023-04-03T05:17:41.395Z,98.18
2023-04-03T05:20:12.415Z,98.54
2023-04-03T05:22:40.251Z,98.26
2023-04-03T05:25:10.250Z,98.39
2023-04-03T05:27:37.882Z,97.89
2023-04-03T05:30:05.792Z,99.30
2023-04-03T05:32:35.203Z,98.91
2023-04-03T05:35:12.778Z,98.49
2023-04-03T05:37:41.742Z,97.63
2023-04-03T05:40:09.928Z,97.89
2023-04-03T05:42:39.774Z,98.18
2023-04-03T05:45:07.780Z,95.99
2023-04-03T05:47:34.861Z,96.68
2023-04-03T05:50:02.180Z,97.54
2023-04-03T05:52:32.749Z,97.15
2023-04-03T05:54:59.873Z,95.85
2023-04-03T05:57:29.902Z,96.92
2023-04-03T05:59:57.014Z,95.93
2023-04-03T06:02:27.031Z,95.94
2023-04-03T06:04:54.722Z,96.17
2023-04-03T06:07:24.501Z,94.74
2023-04-03T06:09:52.220Z,96.02
2023-04-03T06:12:20.835Z,96.00
2023-04-03T06:14:48.425Z,95.93
2023-04-03T06:17:17.652Z,96.00
2023-04-03T06:19:45.728Z,95.43
2023-04-03T06:22:12.976Z,96.06
2023-04-03T06:24:40.235Z,96.08
2023-04-03T06:27:07.415Z,95.45
2023-04-03T06:29:34.394Z,94.50
2023-04-03T06:32:01.378Z,93.70
2023-04-03T06:34:28.488Z,94.30
2023-04-03T06:36:55.585Z,93.86
2023-04-03T06:39:23.660Z,93.46
2023-04-03T06:41:51.740Z,93.53
2023-04-03T06:44:20.340Z,91.60
2023-04-03T06:46:47.739Z,92.29
2023-04-03T06:49:15.846Z,91.26
2023-04-03T06:51:42.849Z,91.25
2023-04-03T06:54:09.841Z,90.38
2023-04-03T06:56:37.118Z,89.98
2023-04-03T06:59:04.313Z,90.37
2023-04-03T07:01:32.450Z,89.17
2023-04-03T07:03:59.798Z,89.65
2023-04-03T07:06:30.015Z,89.74
2023-04-03T07:08:57.012Z,89.20
2023-04-03T07:11:24.314Z,90.87
2023-04-03T07:13:52.038Z,90.36
2023-04-03T07:16:19.982Z,90.02
2023-04-03T07:18:47.605Z,88.82
2023-04-03T07:21:14.800Z,88.42
2023-04-03T07:23:41.842Z,88.89
2023-04-03T07:26:09.082Z,89.45
2023-04-03T07:28:37.489Z,86.88
2023-04-03T07:31:09.292Z,87.20
2023-04-03T07:33:36.961Z,84.13
2023-04-03T07:36:05.122Z,82.44
2023-04-03T07:38:32.238Z,80.22
2023-04-03T07:40:59.341Z,81.07
2023-04-03T07:43:26.975Z,78.59
2023-04-03T07:45:55.134Z,79.35
2023-04-03T07:48:24.595Z,79.41
2023-04-03T07:50:52.273Z,78.74
2023-04-03T07:53:19.539Z,80.92
2023-04-03T07:55:52.486Z,78.85
2023-04-03T07:58:19.812Z,79.58
2023-04-03T08:00:47.966Z,77.01
2023-04-03T08:03:17.643Z,79.63
2023-04-03T08:05:47.484Z,77.52
2023-04-03T08:08:19.929Z,79.23
2023-04-03T08:10:55.534Z,80.23
2023-04-03T08:13:22.968Z,80.45
2023-04-03T08:15:50.630Z,80.88
2023-04-03T08:18:17.953Z,79.37
2023-04-03T08:20:45.825Z,75.31
2023-04-03T08:23:12.869Z,75.50
2023-04-03T08:25:41.778Z,75.04
2023-04-03T08:28:10.300Z,74.86
2023-04-03T08:30:40.505Z,71.93
2023-04-03T08:33:08.245Z,74.61
2023-04-03T08:35:43.136Z,74.52
2023-04-03T08:38:11.367Z,72.53
2023-04-03T08:40:39.230Z,73.82
2023-04-03T08:43:57.735Z,72.23
2023-04-03T08:46:37.308Z,71.81
2023-04-03T08:49:08.671Z,72.55
2023-04-03T08:51:47.367Z,74.62
2023-04-03T08:54:35.259Z,70.57
2023-04-03T08:57:06.174Z,68.73
2023-04-03T08:59:39.329Z,68.44
2023-04-03T09:02:27.357Z,66.00
2023-04-03T09:04:54.667Z,64.86
2023-04-03T09:07:32.544Z,64.88
2023-04-03T09:10:03.840Z,61.45
2023-04-03T09:13:14.259Z,61.94
2023-04-03T09:15:41.907Z,66.63
2023-04-03T09:18:21.680Z,60.64
2023-04-03T09:20:59.892Z,61.23
2023-04-03T09:23:34.977Z,59.01
2023-04-03T09:26:06.787Z,60.70
2023-04-03T09:28:46.862Z,57.50
2023-04-03T09:31:25.271Z,55.51
2023-04-03T09:34:03.604Z,59.44
2023-04-03T09:37:00.291Z,57.81
2023-04-03T09:39:29.962Z,55.08
2023-04-03T09:42:05.863Z,56.81
2023-04-03T09:44:36.282Z,55.77
2023-04-03T09:47:26.733Z,56.60
2023-04-03T09:50:14.830Z,54.79
2023-04-03T09:52:44.893Z,56.16
2023-04-03T09:55:30.745Z,55.65
2023-04-03T09:58:04.065Z,56.13
2023-04-03T10:00:40.050Z,55.68
2023-04-03T10:03:26.017Z,53.07
2023-04-03T10:05:55.440Z,55.05
2023-04-03T10:08:32.890Z,54.50
2023-04-03T10:11:11.042Z,54.10
2023-04-03T10:13:51.612Z,53.96
2023-04-03T10:16:25.445Z,55.43
2023-04-03T10:19:12.933Z,50.34
2023-04-03T10:21:51.778Z,49.90
2023-04-03T10:24:25.681Z,51.80
2023-04-03T10:27:09.243Z,50.22
2023-04-03T10:29:46.584Z,51.13
2023-04-03T10:32:44.671Z,53.46
2023-04-03T10:35:18.913Z,50.92
2023-04-03T10:38:14.085Z,49.96
2023-04-03T10:40:55.537Z,51.03
2023-04-03T10:43:50.802Z,51.35
2023-04-03T10:46:24.807Z,52.05
2023-04-03T10:49:15.858Z,50.81
2023-04-03T10:51:48.655Z,51.31
2023-04-03T10:54:27.303Z,51.04
2023-04-03T10:57:13.155Z,51.98
2023-04-03T10:59:55.061Z,51.74
2023-04-03T11:02:30.985Z,52.81
2023-04-03T11:05:10.842Z,52.82
2023-04-03T11:07:47.834Z,52.69
2023-04-03T11:10:33.810Z,50.61
2023-04-03T11:13:13.355Z,49.55
2023-04-03T11:15:40.878Z,49.52
2023-04-03T11:18:14.909Z,50.33
2023-04-03T11:20:50.839Z,50.50
2023-04-03T11:23:38.627Z,48.80
2023-04-03T11:26:27.374Z,50.57
2023-04-03T11:29:00.392Z,49.88
2023-04-03T11:31:54.439Z,50.13
2023-04-03T11:34:42.591Z,48.32
2023-04-03T11:37:27.130Z,47.05
2023-04-03T11:40:00.921Z,47.77
2023-04-03T11:42:38.726Z,48.79
2023-04-03T11:45:18.138Z,50.14
2023-04-03T11:47:52.152Z,48.67
2023-04-03T11:50:31.476Z,47.91
2023-04-03T11:53:01.204Z,48.00
2023-04-03T11:55:31.448Z,48.75
2023-04-03T11:57:58.442Z,47.71
2023-04-03T12:00:44.476Z,49.88
2023-04-03T12:03:28.125Z,48.38
2023-04-03T12:05:58.370Z,50.38
2023-04-03T12:08:33.319Z,50.17
2023-04-03T12:11:40.818Z,49.98
2023-04-03T12:14:16.089Z,49.06
2023-04-03T12:16:48.185Z,49.96
2023-04-03T12:19:15.152Z,49.50
2023-04-03T12:21:57.753Z,49.13
2023-04-03T12:24:30.439Z,48.50
2023-04-03T12:27:00.158Z,47.91
2023-04-03T12:29:47.103Z,47.00
2023-04-03T12:32:49.286Z,46.35
2023-04-03T12:35:30.960Z,46.27
2023-04-03T12:38:21.432Z,47.24
2023-04-03T12:41:12.691Z,48.18
2023-04-03T12:43:39.632Z,48.96
2023-04-03T12:46:09.921Z,47.31
2023-04-03T12:48:46.268Z,46.55
2023-04-03T12:51:20.544Z,47.19
2023-04-03T12:53:50.708Z,48.07
2023-04-03T12:56:27.231Z,47.46
2023-04-03T12:58:56.290Z,46.32
2023-04-03T13:01:27.503Z,46.57
2023-04-03T13:03:57.793Z,45.66
2023-04-03T13:06:28.679Z,44.38
2023-04-03T13:08:58.093Z,45.06
2023-04-03T13:11:27.316Z,44.95
2023-04-03T13:14:01.328Z,46.11
2023-04-03T13:16:28.647Z,48.14
2023-04-03T13:18:57.081Z,48.04
2023-04-03T13:21:36.027Z,46.59
2023-04-03T13:24:14.761Z,47.91
2023-04-03T13:26:43.575Z,45.79
2023-04-03T13:29:36.230Z,45.05
2023-04-03T13:32:05.855Z,44.56
2023-04-03T13:34:43.096Z,45.03
2023-04-03T13:37:28.260Z,44.74
2023-04-03T13:40:07.501Z,47.04
2023-04-03T13:42:38.108Z,46.12
2023-04-03T13:45:10.800Z,45.55
2023-04-03T13:47:45.407Z,44.56
2023-04-03T13:50:12.431Z,45.45
2023-04-03T13:52:44.043Z,45.12
2023-04-03T13:55:24.630Z,45.82
2023-04-03T13:57:56.841Z,46.25
2023-04-03T14:00:32.112Z,45.08
2023-04-03T14:02:59.270Z,46.23
2023-04-03T14:05:27.603Z,48.23
2023-04-03T14:07:56.327Z,45.99
2023-04-03T14:10:23.902Z,45.63
2023-04-03T14:12:51.997Z,45.79
2023-04-03T14:15:25.213Z,46.24
2023-04-03T14:17:52.886Z,45.98
2023-04-03T14:20:24.613Z,47.27
2023-04-03T14:22:52.234Z,46.94
2023-04-03T14:25:20.692Z,46.96
2023-04-03T14:28:04.671Z,47.53
2023-04-03T14:30:34.123Z,47.63
2023-04-03T14:33:01.773Z,46.50
2023-04-03T14:35:28.989Z,47.79
2023-04-03T14:37:56.531Z,46.98
2023-04-03T14:40:26.923Z,46.88
2023-04-03T14:42:56.059Z,46.35
2023-04-03T14:45:24.452Z,46.07
2023-04-03T14:47:54.016Z,46.06
2023-04-03T14:50:24.553Z,46.76
2023-04-03T14:52:54.957Z,46.64
2023-04-03T14:55:24.908Z,46.75
2023-04-03T14:57:52.889Z,46.52
2023-04-03T15:00:22.377Z,45.89
2023-04-03T15:02:50.316Z,45.40
2023-04-03T15:05:17.752Z,45.84
2023-04-03T15:07:56.027Z,44.76
2023-04-03T15:10:29.405Z,44.81
2023-04-03T15:12:56.882Z,44.95
2023-04-03T15:15:25.080Z,43.86
2023-04-03T15:17:55.326Z,44.53
2023-04-03T15:20:26.035Z,44.52
2023-04-03T15:22:53.501Z,44.22
2023-04-03T15:25:20.547Z,45.13
2023-04-03T15:27:47.761Z,45.78
2023-04-03T15:30:17.721Z,44.06
2023-04-03T15:32:45.309Z,45.86
2023-04-03T15:35:12.720Z,46.25
2023-04-03T15:37:39.883Z,45.73
2023-04-03T15:40:07.947Z,45.14
2023-04-03T15:42:35.348Z,44.84
2023-04-03T15:45:02.666Z,46.51
2023-04-03T15:47:30.273Z,44.36
2023-04-03T15:49:57.423Z,43.31
2023-04-03T15:52:24.498Z,40.98
2023-04-03T15:54:55.951Z,39.99
2023-04-03T15:57:26.963Z,38.64
2023-04-03T15:59:54.176Z,39.16
2023-04-03T16:02:22.215Z,37.58
2023-04-03T16:04:50.247Z,37.00
2023-04-03T16:07:17.313Z,35.81
2023-04-03T16:09:44.345Z,34.41
2023-04-03T16:12:11.416Z,33.04
2023-04-03T16:14:38.443Z,33.62
2023-04-03T16:17:05.519Z,34.12
2023-04-03T16:19:32.677Z,33.47
2023-04-03T16:21:59.874Z,33.42
2023-04-03T16:24:26.992Z,34.74
2023-04-03T16:26:54.363Z,34.38
2023-04-03T16:29:21.417Z,33.19
2023-04-03T16:31:48.629Z,34.42
2023-04-03T16:34:16.798Z,34.67
2023-04-03T16:36:43.999Z,33.68
2023-04-03T16:39:11.174Z,33.90
2023-04-03T16:41:38.762Z,33.88
2023-04-03T16:44:07.971Z,36.65
2023-04-03T16:46:35.298Z,39.04
2023-04-03T16:49:02.402Z,39.08
2023-04-03T16:51:29.465Z,41.98
2023-04-03T16:53:56.949Z,42.79
2023-04-03T16:56:24.521Z,41.67
2023-04-03T16:58:51.573Z,41.05
2023-04-03T17:01:20.877Z,41.04
2023-04-03T17:03:48.728Z,39.63
2023-04-03T17:06:20.636Z,36.83
2023-04-03T17:08:49.261Z,35.26
2023-04-03T17:11:29.691Z,37.17
2023-04-03T17:13:57.015Z,40.81
2023-04-03T17:16:25.443Z,42.74
2023-04-03T17:18:54.014Z,44.80
2023-04-03T17:21:21.575Z,45.44
2023-04-03T17:23:55.313Z,46.73
2023-04-03T17:26:22.413Z,47.25
2023-04-03T17:28:49.406Z,48.10
2023-04-03T17:31:16.689Z,48.86
2023-04-03T17:33:43.978Z,49.49
2023-04-03T17:36:11.507Z,49.03
2023-04-03T17:38:38.579Z,49.69
2023-04-03T17:41:08.213Z,50.77
2023-04-03T17:43:36.306Z,50.28
2023-04-03T17:46:05.982Z,49.74
2023-04-03T17:48:34.687Z,50.58
2023-04-03T17:51:06.925Z,50.86
2023-04-03T17:53:34.212Z,51.20
2023-04-03T17:56:13.638Z,51.29
2023-04-03T17:58:40.680Z,50.97
2023-04-03T18:01:12.805Z,52.60
2023-04-03T18:03:41.146Z,52.63
2023-04-03T18:06:11.649Z,52.75
2023-04-03T18:08:44.118Z,53.45
2023-04-03T18:11:11.794Z,53.63
2023-04-03T18:13:39.141Z,53.06
2023-04-03T18:16:08.014Z,53.74
2023-04-03T18:18:35.772Z,53.49
2023-04-03T18:21:03.445Z,53.71
2023-04-03T18:23:32.792Z,54.85
2023-04-03T18:26:01.808Z,54.31
2023-04-03T18:28:31.442Z,54.31
2023-04-03T18:31:00.428Z,54.94
2023-04-03T18:33:27.592Z,56.98
2023-04-03T18:35:54.799Z,54.48
2023-04-03T18:38:21.776Z,55.69
2023-04-03T18:40:50.025Z,57.47
2023-04-03T18:43:17.225Z,56.37
2023-04-03T18:45:46.023Z,55.85
2023-04-03T18:48:13.181Z,56.59
2023-04-03T18:50:40.648Z,57.19
2023-04-03T18:53:07.697Z,56.79
2023-04-03T18:55:35.563Z,57.99
2023-04-03T18:58:02.679Z,58.58
2023-04-03T19:00:29.867Z,56.96
2023-04-03T19:02:57.125Z,58.10
2023-04-03T19:05:26.939Z,58.41
2023-04-03T19:07:57.904Z,58.34
2023-04-03T19:10:27.059Z,58.26
2023-04-03T19:12:54.872Z,58.54
2023-04-03T19:15:24.478Z,58.35
2023-04-03T19:17:52.177Z,57.00
2023-04-03T19:20:19.379Z,57.67
2023-04-03T19:22:46.742Z,60.04
2023-04-03T19:25:13.847Z,59.84
2023-04-03T19:27:41.409Z,60.56
2023-04-03T19:30:11.243Z,60.11
2023-04-03T19:32:38.574Z,60.86
2023-04-03T19:35:06.613Z,62.46
2023-04-03T19:37:33.741Z,60.49
2023-04-03T19:40:00.998Z,60.04
2023-04-03T19:42:29.116Z,62.62
2023-04-03T19:44:56.695Z,63.74
2023-04-03T19:47:24.706Z,63.96
2023-04-03T19:49:51.965Z,65.35
2023-04-03T19:52:19.095Z,63.59
2023-04-03T19:54:46.134Z,63.12
2023-04-03T19:57:14.003Z,64.32
2023-04-03T19:59:41.167Z,65.31
2023-04-03T20:02:08.442Z,64.06
2023-04-03T20:04:35.778Z,63.97
2023-04-03T20:07:02.844Z,63.52
2023-04-03T20:09:29.880Z,63.27
2023-04-03T20:11:57.910Z,63.06
2023-04-03T20:14:24.930Z,66.17
2023-04-03T20:16:51.949Z,63.77
2023-04-03T20:19:19.174Z,63.25
2023-04-03T20:21:46.211Z,63.29
2023-04-03T20:24:15.000Z,64.82
2023-04-03T20:26:46.283Z,63.95
2023-04-03T20:29:14.657Z,64.02
2023-04-03T20:31:42.160Z,65.89
2023-04-03T20:34:09.436Z,67.72
2023-04-03T20:36:36.857Z,72.62
2023-04-03T20:39:04.045Z,76.33
2023-04-03T20:41:32.206Z,78.18
2023-04-03T20:44:00.317Z,82.46
2023-04-03T20:46:42.322Z,81.53
2023-04-03T20:49:15.975Z,83.28
2023-04-03T20:51:43.952Z,85.13
2023-04-03T20:54:17.589Z,83.72
2023-04-03T20:56:47.116Z,84.43
2023-04-03T20:59:14.648Z,82.72
2023-04-03T21:01:42.253Z,80.25
2023-04-03T21:04:51.567Z,83.42
2023-04-03T21:07:56.568Z,83.42
2023-04-03T21:11:01.573Z,83.17
2023-04-03T21:14:06.824Z,83.63
2023-04-03T21:16:36.533Z,82.92
2023-04-03T21:19:12.369Z,83.47
2023-04-03T21:21:39.908Z,85.15
2023-04-03T21:24:09.660Z,84.03
2023-04-03T21:26:38.452Z,82.96
2023-04-03T21:29:07.267Z,84.79
2023-04-03T21:31:49.383Z,87.42
2023-04-03T21:34:17.255Z,88.37
2023-04-03T21:36:44.960Z,88.72
2023-04-03T21:39:12.163Z,88.72
2023-04-03T21:41:39.192Z,89.52
2023-04-03T21:44:06.200Z,90.08
2023-04-03T21:46:33.625Z,90.65
2023-04-03T21:49:01.301Z,89.72
2023-04-03T21:51:28.866Z,90.06
2023-04-03T21:53:56.330Z,89.81
2023-04-03T21:56:24.308Z,89.13
2023-04-03T21:58:51.936Z,89.55
2023-04-03T22:01:20.549Z,90.57
2023-04-03T22:03:47.566Z,90.03
2023-04-03T22:06:16.340Z,92.37
2023-04-03T22:08:43.805Z,91.77
2023-04-03T22:11:13.921Z,92.35
2023-04-03T22:13:41.975Z,92.59
2023-04-03T22:16:11.052Z,94.27
2023-04-03T22:18:38.681Z,93.12
2023-04-03T22:21:08.280Z,91.75
2023-04-03T22:23:35.662Z,92.09
2023-04-03T22:26:10.711Z,92.49
2023-04-03T22:28:40.417Z,92.38
2023-04-03T22:31:08.415Z,91.57
2023-04-03T22:33:38.866Z,92.90
2023-04-03T22:36:07.614Z,95.03
2023-04-03T22:38:35.435Z,95.01
2023-04-03T22:41:07.285Z,95.62
2023-04-03T22:43:36.621Z,94.58
2023-04-03T22:46:05.492Z,95.32
2023-04-03T22:48:33.312Z,95.18
2023-04-03T22:51:01.047Z,95.63
2023-04-03T22:53:28.652Z,96.53
2023-04-03T22:55:59.774Z,96.26
2023-04-03T22:58:28.636Z,95.56
2023-04-03T23:01:05.088Z,96.70
2023-04-03T23:03:32.213Z,95.91
2023-04-03T23:06:01.324Z,96.96
2023-04-03T23:08:28.848Z,98.20
2023-04-03T23:10:57.911Z,97.97
2023-04-03T23:13:25.929Z,97.80
2023-04-03T23:15:57.627Z,97.03
2023-04-03T23:18:25.843Z,97.35
2023-04-03T23:20:54.566Z,97.44
2023-04-03T23:23:23.380Z,97.20
2023-04-03T23:25:54.425Z,97.94
2023-04-03T23:28:21.643Z,98.00
2023-04-03T23:30:49.212Z,97.76
2023-04-03T23:33:16.518Z,98.16
2023-04-03T23:35:46.490Z,98.17
2023-04-03T23:38:14.381Z,98.61
2023-04-03T23:40:42.358Z,99.45
2023-04-03T23:43:09.752Z,99.50
2023-04-03T23:45:37.206Z,99.44
2023-04-03T23:48:04.405Z,98.40
2023-04-03T23:50:31.557Z,98.29
2023-04-03T23:52:58.522Z,98.62
2023-04-03T23:55:25.533Z,98.02
2023-04-03T23:57:52.539Z,98.95
